sensor_id;sensor_type;location;lat;lon;timestamp;temperature;humidity
12504;DHT22;6316;48.118;-1.690;2023-07-13T00:01:16;18.80;94.40
12504;DHT22;6316;48.118;-1.690;2023-07-13T00:03:42;18.70;94.40
12504;DHT22;6316;48.118;-1.690;2023-07-13T00:06:08;18.70;94.40
12504;DHT22;6316;48.118;-1.690;2023-07-13T00:08:34;18.70;94.40
12504;DHT22;6316;48.118;-1.690;2023-07-13T00:11:03;18.70;94.50
12504;DHT22;6316;48.118;-1.690;2023-07-13T00:13:30;18.60;94.50
12504;DHT22;6316;48.118;-1.690;2023-07-13T00:15:57;18.60;94.50
12504;DHT22;6316;48.118;-1.690;2023-07-13T00:18:23;18.60;94.50
12504;DHT22;6316;48.118;-1.690;2023-07-13T00:20:49;18.60;94.50
12504;DHT22;6316;48.118;-1.690;2023-07-13T00:23:15;18.50;94.50
12504;DHT22;6316;48.118;-1.690;2023-07-13T00:25:42;18.50;94.50
12504;DHT22;6316;48.118;-1.690;2023-07-13T00:28:08;18.50;94.50
12504;DHT22;6316;48.118;-1.690;2023-07-13T00:30:33;18.50;94.60
12504;DHT22;6316;48.118;-1.690;2023-07-13T00:32:59;18.40;94.50
12504;DHT22;6316;48.118;-1.690;2023-07-13T00:35:27;18.40;94.60
12504;DHT22;6316;48.118;-1.690;2023-07-13T00:37:52;18.40;95.00
12504;DHT22;6316;48.118;-1.690;2023-07-13T00:40:18;18.30;94.60
12504;DHT22;6316;48.118;-1.690;2023-07-13T00:42:44;18.30;94.60
12504;DHT22;6316;48.118;-1.690;2023-07-13T00:47:39;18.20;95.00
12504;DHT22;6316;48.118;-1.690;2023-07-13T00:50:09;18.20;94.70
12504;DHT22;6316;48.118;-1.690;2023-07-13T00:52:37;18.10;94.70
12504;DHT22;6316;48.118;-1.690;2023-07-13T00:55:03;18.10;94.70
12504;DHT22;6316;48.118;-1.690;2023-07-13T00:57:29;18.10;94.70
12504;DHT22;6316;48.118;-1.690;2023-07-13T01:00:01;18.10;94.80
12504;DHT22;6316;48.118;-1.690;2023-07-13T01:02:33;18.00;94.70
12504;DHT22;6316;48.118;-1.690;2023-07-13T01:04:59;18.00;94.80
12504;DHT22;6316;48.118;-1.690;2023-07-13T01:07:25;18.00;94.80
12504;DHT22;6316;48.118;-1.690;2023-07-13T01:09:51;17.90;94.80
12504;DHT22;6316;48.118;-1.690;2023-07-13T01:12:16;17.90;94.80
12504;DHT22;6316;48.118;-1.690;2023-07-13T01:14:42;17.90;94.80
12504;DHT22;6316;48.118;-1.690;2023-07-13T01:17:11;17.80;94.90
12504;DHT22;6316;48.118;-1.690;2023-07-13T01:19:43;17.80;94.90
12504;DHT22;6316;48.118;-1.690;2023-07-13T01:22:12;17.80;94.90
12504;DHT22;6316;48.118;-1.690;2023-07-13T01:24:40;17.80;94.90
12504;DHT22;6316;48.118;-1.690;2023-07-13T01:27:07;17.80;94.90
12504;DHT22;6316;48.118;-1.690;2023-07-13T01:29:34;17.80;95.00
12504;DHT22;6316;48.118;-1.690;2023-07-13T01:32:00;17.90;95.00
12504;DHT22;6316;48.118;-1.690;2023-07-13T01:34:27;17.90;95.00
12504;DHT22;6316;48.118;-1.690;2023-07-13T01:36:53;17.90;95.00
12504;DHT22;6316;48.118;-1.690;2023-07-13T01:39:21;17.80;95.00
12504;DHT22;6316;48.118;-1.690;2023-07-13T01:41:46;17.90;95.00
12504;DHT22;6316;48.118;-1.690;2023-07-13T01:44:12;17.90;95.00
12504;DHT22;6316;48.118;-1.690;2023-07-13T01:46:38;17.80;95.00
12504;DHT22;6316;48.118;-1.690;2023-07-13T01:49:03;17.80;95.10
12504;DHT22;6316;48.118;-1.690;2023-07-13T01:51:29;17.80;95.10
12504;DHT22;6316;48.118;-1.690;2023-07-13T01:53:55;17.80;95.10
12504;DHT22;6316;48.118;-1.690;2023-07-13T01:56:20;17.70;95.10
12504;DHT22;6316;48.118;-1.690;2023-07-13T01:58:46;17.80;95.20
12504;DHT22;6316;48.118;-1.690;2023-07-13T02:01:12;17.80;95.20
12504;DHT22;6316;48.118;-1.690;2023-07-13T02:03:38;17.80;95.20
12504;DHT22;6316;48.118;-1.690;2023-07-13T02:06:03;17.80;95.20
12504;DHT22;6316;48.118;-1.690;2023-07-13T02:08:29;17.80;95.20
12504;DHT22;6316;48.118;-1.690;2023-07-13T02:10:55;17.80;95.20
12504;DHT22;6316;48.118;-1.690;2023-07-13T02:13:20;17.90;95.30
12504;DHT22;6316;48.118;-1.690;2023-07-13T02:15:46;17.90;95.30
12504;DHT22;6316;48.118;-1.690;2023-07-13T02:18:11;17.90;95.30
12504;DHT22;6316;48.118;-1.690;2023-07-13T02:20:42;17.90;95.30
12504;DHT22;6316;48.118;-1.690;2023-07-13T02:23:08;17.90;95.30
12504;DHT22;6316;48.118;-1.690;2023-07-13T02:25:34;17.90;95.30
12504;DHT22;6316;48.118;-1.690;2023-07-13T02:28:00;17.90;95.30
12504;DHT22;6316;48.118;-1.690;2023-07-13T02:30:26;17.90;95.30
12504;DHT22;6316;48.118;-1.690;2023-07-13T02:32:51;17.90;95.30
12504;DHT22;6316;48.118;-1.690;2023-07-13T02:35:17;17.90;95.40
12504;DHT22;6316;48.118;-1.690;2023-07-13T02:37:43;17.90;95.40
12504;DHT22;6316;48.118;-1.690;2023-07-13T02:40:09;17.90;95.40
12504;DHT22;6316;48.118;-1.690;2023-07-13T02:42:35;17.90;95.40
12504;DHT22;6316;48.118;-1.690;2023-07-13T02:45:00;17.90;95.40
12504;DHT22;6316;48.118;-1.690;2023-07-13T02:47:26;17.90;95.40
12504;DHT22;6316;48.118;-1.690;2023-07-13T02:49:52;17.90;95.50
12504;DHT22;6316;48.118;-1.690;2023-07-13T02:52:18;17.90;95.50
12504;DHT22;6316;48.118;-1.690;2023-07-13T02:54:44;17.90;95.50
12504;DHT22;6316;48.118;-1.690;2023-07-13T02:57:09;17.90;95.50
12504;DHT22;6316;48.118;-1.690;2023-07-13T02:59:35;17.90;95.60
12504;DHT22;6316;48.118;-1.690;2023-07-13T03:02:02;17.90;95.60
12504;DHT22;6316;48.118;-1.690;2023-07-13T03:04:27;17.90;95.60
12504;DHT22;6316;48.118;-1.690;2023-07-13T03:06:53;17.90;95.60
12504;DHT22;6316;48.118;-1.690;2023-07-13T03:09:24;17.90;95.60
12504;DHT22;6316;48.118;-1.690;2023-07-13T03:11:53;17.90;95.60
12504;DHT22;6316;48.118;-1.690;2023-07-13T03:14:19;17.90;95.60
12504;DHT22;6316;48.118;-1.690;2023-07-13T03:16:44;17.90;95.60
12504;DHT22;6316;48.118;-1.690;2023-07-13T03:19:10;17.90;95.60
12504;DHT22;6316;48.118;-1.690;2023-07-13T03:21:35;17.90;95.70
12504;DHT22;6316;48.118;-1.690;2023-07-13T03:24:01;17.90;95.70
12504;DHT22;6316;48.118;-1.690;2023-07-13T03:26:27;17.90;95.70
12504;DHT22;6316;48.118;-1.690;2023-07-13T03:28:52;17.90;96.10
12504;DHT22;6316;48.118;-1.690;2023-07-13T03:31:21;17.90;95.70
12504;DHT22;6316;48.118;-1.690;2023-07-13T03:33:47;17.90;95.70
12504;DHT22;6316;48.118;-1.690;2023-07-13T03:36:20;17.90;95.80
12504;DHT22;6316;48.118;-1.690;2023-07-13T03:38:51;17.90;95.80
12504;DHT22;6316;48.118;-1.690;2023-07-13T03:41:17;17.90;95.80
12504;DHT22;6316;48.118;-1.690;2023-07-13T03:43:43;17.90;95.80
12504;DHT22;6316;48.118;-1.690;2023-07-13T03:46:10;17.90;95.80
12504;DHT22;6316;48.118;-1.690;2023-07-13T03:48:36;17.90;95.90
12504;DHT22;6316;48.118;-1.690;2023-07-13T03:51:01;17.90;95.90
12504;DHT22;6316;48.118;-1.690;2023-07-13T03:53:27;17.90;95.90
12504;DHT22;6316;48.118;-1.690;2023-07-13T03:55:53;17.90;95.90
12504;DHT22;6316;48.118;-1.690;2023-07-13T04:00:51;17.90;96.00
12504;DHT22;6316;48.118;-1.690;2023-07-13T04:03:17;17.90;96.00
12504;DHT22;6316;48.118;-1.690;2023-07-13T04:05:43;17.90;96.00
12504;DHT22;6316;48.118;-1.690;2023-07-13T04:08:08;17.80;96.00
12504;DHT22;6316;48.118;-1.690;2023-07-13T04:10:34;17.90;96.00
12504;DHT22;6316;48.118;-1.690;2023-07-13T04:12:59;17.80;96.00
12504;DHT22;6316;48.118;-1.690;2023-07-13T04:15:29;17.90;96.10
12504;DHT22;6316;48.118;-1.690;2023-07-13T04:17:55;17.90;96.10
12504;DHT22;6316;48.118;-1.690;2023-07-13T04:20:21;17.90;96.10
12504;DHT22;6316;48.118;-1.690;2023-07-13T04:22:47;17.90;96.10
12504;DHT22;6316;48.118;-1.690;2023-07-13T04:25:13;17.90;96.10
12504;DHT22;6316;48.118;-1.690;2023-07-13T04:27:38;17.80;96.10
12504;DHT22;6316;48.118;-1.690;2023-07-13T04:30:05;17.80;96.10
12504;DHT22;6316;48.118;-1.690;2023-07-13T04:32:31;17.80;96.20
12504;DHT22;6316;48.118;-1.690;2023-07-13T04:34:58;17.80;96.20
12504;DHT22;6316;48.118;-1.690;2023-07-13T04:37:25;17.80;96.20
12504;DHT22;6316;48.118;-1.690;2023-07-13T04:39:51;17.80;96.20
12504;DHT22;6316;48.118;-1.690;2023-07-13T04:42:17;17.80;96.20
12504;DHT22;6316;48.118;-1.690;2023-07-13T04:44:50;17.80;96.30
12504;DHT22;6316;48.118;-1.690;2023-07-13T04:47:17;17.80;96.30
12504;DHT22;6316;48.118;-1.690;2023-07-13T04:49:43;17.80;96.30
12504;DHT22;6316;48.118;-1.690;2023-07-13T04:52:09;17.80;96.30
12504;DHT22;6316;48.118;-1.690;2023-07-13T04:54:35;17.80;96.30
12504;DHT22;6316;48.118;-1.690;2023-07-13T04:57:03;17.80;96.30
12504;DHT22;6316;48.118;-1.690;2023-07-13T04:59:34;17.80;96.30
12504;DHT22;6316;48.118;-1.690;2023-07-13T05:02:00;17.80;96.40
12504;DHT22;6316;48.118;-1.690;2023-07-13T05:04:26;17.80;96.40
12504;DHT22;6316;48.118;-1.690;2023-07-13T05:06:52;17.80;96.40
12504;DHT22;6316;48.118;-1.690;2023-07-13T05:09:18;17.80;96.40
12504;DHT22;6316;48.118;-1.690;2023-07-13T05:11:44;17.80;96.40
12504;DHT22;6316;48.118;-1.690;2023-07-13T05:14:10;17.80;96.50
12504;DHT22;6316;48.118;-1.690;2023-07-13T05:16:36;17.90;96.50
12504;DHT22;6316;48.118;-1.690;2023-07-13T05:19:02;17.90;96.50
12504;DHT22;6316;48.118;-1.690;2023-07-13T05:21:28;17.90;96.50
12504;DHT22;6316;48.118;-1.690;2023-07-13T05:23:54;17.90;96.50
12504;DHT22;6316;48.118;-1.690;2023-07-13T05:26:20;17.90;96.60
12504;DHT22;6316;48.118;-1.690;2023-07-13T05:28:46;17.90;96.60
12504;DHT22;6316;48.118;-1.690;2023-07-13T05:31:12;17.90;96.60
12504;DHT22;6316;48.118;-1.690;2023-07-13T05:33:38;18.00;96.60
12504;DHT22;6316;48.118;-1.690;2023-07-13T05:36:04;18.00;96.60
12504;DHT22;6316;48.118;-1.690;2023-07-13T05:38:30;18.00;96.60
12504;DHT22;6316;48.118;-1.690;2023-07-13T05:40:57;18.00;96.60
12504;DHT22;6316;48.118;-1.690;2023-07-13T05:43:23;18.00;96.60
12504;DHT22;6316;48.118;-1.690;2023-07-13T05:45:50;18.00;96.60
12504;DHT22;6316;48.118;-1.690;2023-07-13T05:48:16;18.00;96.60
12504;DHT22;6316;48.118;-1.690;2023-07-13T05:50:42;18.10;96.70
12504;DHT22;6316;48.118;-1.690;2023-07-13T05:53:08;18.10;96.70
12504;DHT22;6316;48.118;-1.690;2023-07-13T05:55:33;18.10;96.70
12504;DHT22;6316;48.118;-1.690;2023-07-13T05:58:00;18.10;96.70
12504;DHT22;6316;48.118;-1.690;2023-07-13T06:00:26;18.10;96.70
12504;DHT22;6316;48.118;-1.690;2023-07-13T06:02:52;18.10;96.70
12504;DHT22;6316;48.118;-1.690;2023-07-13T06:05:18;18.20;96.70
12504;DHT22;6316;48.118;-1.690;2023-07-13T06:07:44;18.10;96.70
12504;DHT22;6316;48.118;-1.690;2023-07-13T06:10:10;18.20;96.80
12504;DHT22;6316;48.118;-1.690;2023-07-13T06:12:36;18.20;96.80
12504;DHT22;6316;48.118;-1.690;2023-07-13T06:15:01;18.20;96.80
12504;DHT22;6316;48.118;-1.690;2023-07-13T06:17:27;18.20;96.80
12504;DHT22;6316;48.118;-1.690;2023-07-13T06:19:53;18.20;96.80
12504;DHT22;6316;48.118;-1.690;2023-07-13T06:22:19;18.30;96.80
12504;DHT22;6316;48.118;-1.690;2023-07-13T06:24:44;18.30;96.80
12504;DHT22;6316;48.118;-1.690;2023-07-13T06:27:10;18.30;96.80
12504;DHT22;6316;48.118;-1.690;2023-07-13T06:29:35;18.40;96.90
12504;DHT22;6316;48.118;-1.690;2023-07-13T06:32:01;18.40;96.90
12504;DHT22;6316;48.118;-1.690;2023-07-13T06:34:27;18.40;96.90
12504;DHT22;6316;48.118;-1.690;2023-07-13T06:36:52;18.50;96.90
12504;DHT22;6316;48.118;-1.690;2023-07-13T06:39:18;18.50;96.90
12504;DHT22;6316;48.118;-1.690;2023-07-13T06:41:44;18.60;96.90
12504;DHT22;6316;48.118;-1.690;2023-07-13T06:44:09;18.60;96.90
12504;DHT22;6316;48.118;-1.690;2023-07-13T06:46:35;18.60;96.90
12504;DHT22;6316;48.118;-1.690;2023-07-13T06:49:01;18.70;97.00
12504;DHT22;6316;48.118;-1.690;2023-07-13T06:51:26;18.70;97.00
12504;DHT22;6316;48.118;-1.690;2023-07-13T06:53:52;18.70;97.00
12504;DHT22;6316;48.118;-1.690;2023-07-13T06:56:18;18.80;97.00
12504;DHT22;6316;48.118;-1.690;2023-07-13T06:58:43;18.80;97.00
12504;DHT22;6316;48.118;-1.690;2023-07-13T07:01:09;18.80;97.00
12504;DHT22;6316;48.118;-1.690;2023-07-13T07:03:35;18.80;97.00
12504;DHT22;6316;48.118;-1.690;2023-07-13T07:06:19;18.80;97.00
12504;DHT22;6316;48.118;-1.690;2023-07-13T07:08:45;18.90;97.00
12504;DHT22;6316;48.118;-1.690;2023-07-13T07:11:13;19.00;97.00
12504;DHT22;6316;48.118;-1.690;2023-07-13T07:13:40;19.00;97.00
12504;DHT22;6316;48.118;-1.690;2023-07-13T07:16:06;19.10;97.10
12504;DHT22;6316;48.118;-1.690;2023-07-13T07:18:33;19.10;97.00
12504;DHT22;6316;48.118;-1.690;2023-07-13T07:20:58;19.20;97.10
12504;DHT22;6316;48.118;-1.690;2023-07-13T07:23:24;19.20;97.00
12504;DHT22;6316;48.118;-1.690;2023-07-13T07:25:49;19.30;97.10
12504;DHT22;6316;48.118;-1.690;2023-07-13T07:28:17;19.30;97.00
12504;DHT22;6316;48.118;-1.690;2023-07-13T07:30:45;19.40;97.10
12504;DHT22;6316;48.118;-1.690;2023-07-13T07:33:11;19.40;97.00
12504;DHT22;6316;48.118;-1.690;2023-07-13T07:35:36;19.50;97.10
12504;DHT22;6316;48.118;-1.690;2023-07-13T07:38:02;19.60;97.40
12504;DHT22;6316;48.118;-1.690;2023-07-13T07:40:28;19.70;97.10
12504;DHT22;6316;48.118;-1.690;2023-07-13T07:42:53;19.80;97.00
12504;DHT22;6316;48.118;-1.690;2023-07-13T07:45:20;19.90;97.00
12504;DHT22;6316;48.118;-1.690;2023-07-13T07:47:45;20.00;97.00
12504;DHT22;6316;48.118;-1.690;2023-07-13T07:50:11;20.10;97.00
12504;DHT22;6316;48.118;-1.690;2023-07-13T07:52:37;20.20;96.90
12504;DHT22;6316;48.118;-1.690;2023-07-13T07:55:04;20.30;96.90
12504;DHT22;6316;48.118;-1.690;2023-07-13T07:57:30;20.40;96.90
12504;DHT22;6316;48.118;-1.690;2023-07-13T07:59:56;20.50;96.90
12504;DHT22;6316;48.118;-1.690;2023-07-13T08:02:21;20.60;96.90
12504;DHT22;6316;48.118;-1.690;2023-07-13T08:04:47;20.70;96.90
12504;DHT22;6316;48.118;-1.690;2023-07-13T08:07:13;20.80;96.80
12504;DHT22;6316;48.118;-1.690;2023-07-13T08:09:38;21.00;96.80
12504;DHT22;6316;48.118;-1.690;2023-07-13T08:12:04;21.40;96.80
12504;DHT22;6316;48.118;-1.690;2023-07-13T08:14:30;22.00;96.60
12504;DHT22;6316;48.118;-1.690;2023-07-13T08:16:56;22.50;96.40
12504;DHT22;6316;48.118;-1.690;2023-07-13T08:19:21;22.80;96.20
12504;DHT22;6316;48.118;-1.690;2023-07-13T08:21:47;23.10;96.10
12504;DHT22;6316;48.118;-1.690;2023-07-13T08:24:14;23.60;95.90
12504;DHT22;6316;48.118;-1.690;2023-07-13T08:26:40;23.90;95.70
12504;DHT22;6316;48.118;-1.690;2023-07-13T08:29:05;24.20;95.60
12504;DHT22;6316;48.118;-1.690;2023-07-13T08:31:31;24.60;95.40
12504;DHT22;6316;48.118;-1.690;2023-07-13T08:33:57;25.10;95.60
12504;DHT22;6316;48.118;-1.690;2023-07-13T08:36:23;26.20;95.00
12504;DHT22;6316;48.118;-1.690;2023-07-13T08:38:48;27.60;94.40
12504;DHT22;6316;48.118;-1.690;2023-07-13T08:41:18;28.40;93.70
12504;DHT22;6316;48.118;-1.690;2023-07-13T08:43:47;29.00;93.50
12504;DHT22;6316;48.118;-1.690;2023-07-13T08:49:08;29.40;93.20
12504;DHT22;6316;48.118;-1.690;2023-07-13T08:52:00;29.60;93.30
12504;DHT22;6316;48.118;-1.690;2023-07-13T08:54:37;29.90;93.10
12504;DHT22;6316;48.118;-1.690;2023-07-13T08:57:21;30.70;92.90
12504;DHT22;6316;48.118;-1.690;2023-07-13T08:59:48;31.40;92.60
12504;DHT22;6316;48.118;-1.690;2023-07-13T09:02:34;31.90;92.40
12504;DHT22;6316;48.118;-1.690;2023-07-13T09:05:14;32.20;92.20
12504;DHT22;6316;48.118;-1.690;2023-07-13T09:10:46;33.20;91.80
12504;DHT22;6316;48.118;-1.690;2023-07-13T09:15:53;33.70;91.50
12504;DHT22;6316;48.118;-1.690;2023-07-13T09:20:50;33.30;91.80
12504;DHT22;6316;48.118;-1.690;2023-07-13T09:23:22;33.40;91.70
12504;DHT22;6316;48.118;-1.690;2023-07-13T09:25:54;33.20;91.70
12504;DHT22;6316;48.118;-1.690;2023-07-13T09:28:27;33.00;91.80
12504;DHT22;6316;48.118;-1.690;2023-07-13T09:33:41;32.10;91.90
12504;DHT22;6316;48.118;-1.690;2023-07-13T09:36:20;31.30;92.00
12504;DHT22;6316;48.118;-1.690;2023-07-13T09:38:48;30.40;92.30
12504;DHT22;6316;48.118;-1.690;2023-07-13T09:41:21;29.60;92.60
12504;DHT22;6316;48.118;-1.690;2023-07-13T09:44:28;29.00;92.90
12504;DHT22;6316;48.118;-1.690;2023-07-13T09:46:56;28.30;93.20
12504;DHT22;6316;48.118;-1.690;2023-07-13T09:49:43;27.90;93.50
12504;DHT22;6316;48.118;-1.690;2023-07-13T09:52:15;27.60;93.70
12504;DHT22;6316;48.118;-1.690;2023-07-13T09:54:45;27.30;93.70
12504;DHT22;6316;48.118;-1.690;2023-07-13T09:57:16;27.10;93.80
12504;DHT22;6316;48.118;-1.690;2023-07-13T09:59:47;26.90;93.80
12504;DHT22;6316;48.118;-1.690;2023-07-13T10:04:56;26.60;93.80
12504;DHT22;6316;48.118;-1.690;2023-07-13T10:07:23;26.50;93.80
12504;DHT22;6316;48.118;-1.690;2023-07-13T10:09:53;26.50;93.90
12504;DHT22;6316;48.118;-1.690;2023-07-13T10:12:20;26.60;93.90
12504;DHT22;6316;48.118;-1.690;2023-07-13T10:14:46;26.60;93.80
12504;DHT22;6316;48.118;-1.690;2023-07-13T10:17:14;26.70;93.70
12504;DHT22;6316;48.118;-1.690;2023-07-13T10:19:42;26.70;93.60
12504;DHT22;6316;48.118;-1.690;2023-07-13T10:25:15;27.00;93.50
12504;DHT22;6316;48.118;-1.690;2023-07-13T10:27:41;27.20;93.30
12504;DHT22;6316;48.118;-1.690;2023-07-13T10:30:24;27.20;93.20
12504;DHT22;6316;48.118;-1.690;2023-07-13T10:32:51;27.30;93.10
12504;DHT22;6316;48.118;-1.690;2023-07-13T10:35:20;27.40;93.00
12504;DHT22;6316;48.118;-1.690;2023-07-13T10:40:31;27.40;92.90
12504;DHT22;6316;48.118;-1.690;2023-07-13T10:43:01;27.40;92.80
12504;DHT22;6316;48.118;-1.690;2023-07-13T10:45:34;27.50;92.80
12504;DHT22;6316;48.118;-1.690;2023-07-13T10:48:00;27.50;92.70
12504;DHT22;6316;48.118;-1.690;2023-07-13T10:50:28;27.60;92.70
12504;DHT22;6316;48.118;-1.690;2023-07-13T10:53:02;27.60;92.60
12504;DHT22;6316;48.118;-1.690;2023-07-13T10:55:32;27.50;92.50
12504;DHT22;6316;48.118;-1.690;2023-07-13T11:00:50;27.50;92.30
12504;DHT22;6316;48.118;-1.690;2023-07-13T11:03:20;27.50;92.30
12504;DHT22;6316;48.118;-1.690;2023-07-13T11:05:51;27.40;92.20
12504;DHT22;6316;48.118;-1.690;2023-07-13T11:08:51;27.50;92.20
12504;DHT22;6316;48.118;-1.690;2023-07-13T11:11:38;27.40;92.10
12504;DHT22;6316;48.118;-1.690;2023-07-13T11:14:25;27.30;92.00
12504;DHT22;6316;48.118;-1.690;2023-07-13T11:16:51;27.30;92.10
12504;DHT22;6316;48.118;-1.690;2023-07-13T11:27:42;27.50;91.90
12504;DHT22;6316;48.118;-1.690;2023-07-13T11:33:20;27.60;91.60
12504;DHT22;6316;48.118;-1.690;2023-07-13T11:38:23;27.70;91.50
12504;DHT22;6316;48.118;-1.690;2023-07-13T11:40:53;27.80;91.50
12504;DHT22;6316;48.118;-1.690;2023-07-13T11:43:19;27.80;91.30
12504;DHT22;6316;48.118;-1.690;2023-07-13T11:45:45;27.70;91.30
12504;DHT22;6316;48.118;-1.690;2023-07-13T11:48:19;27.70;91.30
12504;DHT22;6316;48.118;-1.690;2023-07-13T11:50:51;27.70;91.30
12504;DHT22;6316;48.118;-1.690;2023-07-13T11:53:18;27.60;91.40
12504;DHT22;6316;48.118;-1.690;2023-07-13T11:55:44;27.60;91.30
12504;DHT22;6316;48.118;-1.690;2023-07-13T11:58:18;27.60;91.30
12504;DHT22;6316;48.118;-1.690;2023-07-13T12:00:46;27.50;91.30
12504;DHT22;6316;48.118;-1.690;2023-07-13T12:03:19;27.40;91.30
12504;DHT22;6316;48.118;-1.690;2023-07-13T12:05:56;27.30;91.30
12504;DHT22;6316;48.118;-1.690;2023-07-13T12:08:22;27.20;91.30
12504;DHT22;6316;48.118;-1.690;2023-07-13T12:10:48;27.10;91.30
12504;DHT22;6316;48.118;-1.690;2023-07-13T12:13:21;27.00;91.30
12504;DHT22;6316;48.118;-1.690;2023-07-13T12:15:46;27.00;91.40
12504;DHT22;6316;48.118;-1.690;2023-07-13T12:18:21;27.00;91.40
12504;DHT22;6316;48.118;-1.690;2023-07-13T12:20:49;27.00;91.40
12504;DHT22;6316;48.118;-1.690;2023-07-13T12:25:51;27.10;91.30
12504;DHT22;6316;48.118;-1.690;2023-07-13T12:28:21;27.10;91.20
12504;DHT22;6316;48.118;-1.690;2023-07-13T12:30:48;27.20;91.20
12504;DHT22;6316;48.118;-1.690;2023-07-13T12:33:16;27.20;91.10
12504;DHT22;6316;48.118;-1.690;2023-07-13T12:35:47;27.30;91.10
12504;DHT22;6316;48.118;-1.690;2023-07-13T12:38:16;27.40;91.10
12504;DHT22;6316;48.118;-1.690;2023-07-13T12:40:42;27.40;91.10
12504;DHT22;6316;48.118;-1.690;2023-07-13T12:43:14;27.40;90.90
12504;DHT22;6316;48.118;-1.690;2023-07-13T12:46:01;27.40;90.90
12504;DHT22;6316;48.118;-1.690;2023-07-13T12:48:27;27.40;90.90
12504;DHT22;6316;48.118;-1.690;2023-07-13T12:50:54;27.40;90.80
12504;DHT22;6316;48.118;-1.690;2023-07-13T12:53:28;27.20;90.80
12504;DHT22;6316;48.118;-1.690;2023-07-13T12:55:58;27.20;90.80
12504;DHT22;6316;48.118;-1.690;2023-07-13T12:58:35;27.20;90.80
12504;DHT22;6316;48.118;-1.690;2023-07-13T13:01:02;27.20;90.80
12504;DHT22;6316;48.118;-1.690;2023-07-13T13:03:33;27.30;90.90
12504;DHT22;6316;48.118;-1.690;2023-07-13T13:06:26;27.40;90.80
12504;DHT22;6316;48.118;-1.690;2023-07-13T13:08:56;27.50;90.70
12504;DHT22;6316;48.118;-1.690;2023-07-13T13:11:24;27.50;90.70
12504;DHT22;6316;48.118;-1.690;2023-07-13T13:13:51;27.50;90.60
12504;DHT22;6316;48.118;-1.690;2023-07-13T13:18:51;27.60;90.50
12504;DHT22;6316;48.118;-1.690;2023-07-13T13:21:18;27.70;90.60
12504;DHT22;6316;48.118;-1.690;2023-07-13T13:23:44;27.60;90.50
12504;DHT22;6316;48.118;-1.690;2023-07-13T13:26:13;27.50;90.50
12504;DHT22;6316;48.118;-1.690;2023-07-13T13:28:40;27.60;90.50
12504;DHT22;6316;48.118;-1.690;2023-07-13T13:31:08;27.60;90.50
12504;DHT22;6316;48.118;-1.690;2023-07-13T13:33:38;27.50;90.50
12504;DHT22;6316;48.118;-1.690;2023-07-13T13:36:13;27.40;90.50
12504;DHT22;6316;48.118;-1.690;2023-07-13T13:38:40;27.30;90.50
12504;DHT22;6316;48.118;-1.690;2023-07-13T13:41:11;27.30;90.60
12504;DHT22;6316;48.118;-1.690;2023-07-13T13:43:39;27.20;90.60
12504;DHT22;6316;48.118;-1.690;2023-07-13T13:46:13;27.20;90.60
12504;DHT22;6316;48.118;-1.690;2023-07-13T13:48:40;27.20;90.60
12504;DHT22;6316;48.118;-1.690;2023-07-13T13:51:32;27.30;90.60
12504;DHT22;6316;48.118;-1.690;2023-07-13T13:53:58;27.30;90.50
12504;DHT22;6316;48.118;-1.690;2023-07-13T13:56:24;27.40;90.50
12504;DHT22;6316;48.118;-1.690;2023-07-13T13:58:51;27.40;90.40
12504;DHT22;6316;48.118;-1.690;2023-07-13T14:01:21;27.50;90.40
12504;DHT22;6316;48.118;-1.690;2023-07-13T14:03:48;27.50;90.40
12504;DHT22;6316;48.118;-1.690;2023-07-13T14:06:16;27.50;90.40
12504;DHT22;6316;48.118;-1.690;2023-07-13T14:08:43;27.50;90.40
12504;DHT22;6316;48.118;-1.690;2023-07-13T14:11:13;27.50;90.30
12504;DHT22;6316;48.118;-1.690;2023-07-13T14:13:48;27.50;90.70
12504;DHT22;6316;48.118;-1.690;2023-07-13T14:16:19;27.50;90.30
12504;DHT22;6316;48.118;-1.690;2023-07-13T14:18:46;27.50;90.30
12504;DHT22;6316;48.118;-1.690;2023-07-13T14:21:17;27.50;90.20
12504;DHT22;6316;48.118;-1.690;2023-07-13T14:23:44;27.60;90.20
12504;DHT22;6316;48.118;-1.690;2023-07-13T14:26:14;27.50;90.20
12504;DHT22;6316;48.118;-1.690;2023-07-13T14:28:53;27.40;90.20
12504;DHT22;6316;48.118;-1.690;2023-07-13T14:31:19;27.40;90.30
12504;DHT22;6316;48.118;-1.690;2023-07-13T14:33:45;27.30;90.30
12504;DHT22;6316;48.118;-1.690;2023-07-13T14:38:58;27.40;90.30
12504;DHT22;6316;48.118;-1.690;2023-07-13T14:41:25;27.40;90.20
12504;DHT22;6316;48.118;-1.690;2023-07-13T14:43:51;27.40;90.20
12504;DHT22;6316;48.118;-1.690;2023-07-13T14:48:49;27.30;90.30
12504;DHT22;6316;48.118;-1.690;2023-07-13T14:51:14;27.30;90.30
12504;DHT22;6316;48.118;-1.690;2023-07-13T14:53:40;27.20;90.20
12504;DHT22;6316;48.118;-1.690;2023-07-13T14:56:12;27.20;90.20
12504;DHT22;6316;48.118;-1.690;2023-07-13T14:58:38;27.10;90.20
12504;DHT22;6316;48.118;-1.690;2023-07-13T15:01:12;27.10;90.30
12504;DHT22;6316;48.118;-1.690;2023-07-13T15:03:44;27.10;90.30
12504;DHT22;6316;48.118;-1.690;2023-07-13T15:06:12;27.20;90.30
12504;DHT22;6316;48.118;-1.690;2023-07-13T15:08:38;27.20;90.20
12504;DHT22;6316;48.118;-1.690;2023-07-13T15:11:06;27.30;90.20
12504;DHT22;6316;48.118;-1.690;2023-07-13T15:13:32;27.30;90.20
12504;DHT22;6316;48.118;-1.690;2023-07-13T15:15:58;27.30;90.20
12504;DHT22;6316;48.118;-1.690;2023-07-13T15:18:25;27.30;90.10
12504;DHT22;6316;48.118;-1.690;2023-07-13T15:20:52;27.40;90.20
12504;DHT22;6316;48.118;-1.690;2023-07-13T15:23:22;27.40;90.20
12504;DHT22;6316;48.118;-1.690;2023-07-13T15:25:51;27.40;90.10
12504;DHT22;6316;48.118;-1.690;2023-07-13T15:28:17;27.40;90.10
12504;DHT22;6316;48.118;-1.690;2023-07-13T15:30:48;27.40;90.10
12504;DHT22;6316;48.118;-1.690;2023-07-13T15:35:40;27.50;90.10
12504;DHT22;6316;48.118;-1.690;2023-07-13T15:38:23;27.50;90.00
12504;DHT22;6316;48.118;-1.690;2023-07-13T15:40:50;27.40;90.00
12504;DHT22;6316;48.118;-1.690;2023-07-13T15:43:17;27.30;90.00
12504;DHT22;6316;48.118;-1.690;2023-07-13T15:45:44;27.30;90.00
12504;DHT22;6316;48.118;-1.690;2023-07-13T15:48:22;27.30;90.10
12504;DHT22;6316;48.118;-1.690;2023-07-13T15:50:53;27.20;90.00
12504;DHT22;6316;48.118;-1.690;2023-07-13T15:53:29;27.30;90.10
12504;DHT22;6316;48.118;-1.690;2023-07-13T15:55:55;27.30;90.10
12504;DHT22;6316;48.118;-1.690;2023-07-13T15:58:21;27.20;90.00
12504;DHT22;6316;48.118;-1.690;2023-07-13T16:00:47;27.20;90.00
12504;DHT22;6316;48.118;-1.690;2023-07-13T16:03:16;27.20;90.00
12504;DHT22;6316;48.118;-1.690;2023-07-13T16:05:42;27.20;90.00
12504;DHT22;6316;48.118;-1.690;2023-07-13T16:08:25;27.20;90.00
12504;DHT22;6316;48.118;-1.690;2023-07-13T16:10:51;27.20;90.00
12504;DHT22;6316;48.118;-1.690;2023-07-13T16:13:19;27.20;90.00
12504;DHT22;6316;48.118;-1.690;2023-07-13T16:15:46;27.10;90.00
12504;DHT22;6316;48.118;-1.690;2023-07-13T16:18:13;27.00;90.00
12504;DHT22;6316;48.118;-1.690;2023-07-13T16:20:43;27.00;90.00
12504;DHT22;6316;48.118;-1.690;2023-07-13T16:23:11;26.90;90.10
12504;DHT22;6316;48.118;-1.690;2023-07-13T16:25:37;26.90;90.10
12504;DHT22;6316;48.118;-1.690;2023-07-13T16:28:03;26.80;90.00
12504;DHT22;6316;48.118;-1.690;2023-07-13T16:30:30;26.80;90.10
12504;DHT22;6316;48.118;-1.690;2023-07-13T16:32:59;26.70;90.10